createdAt,value
2023-04-29T00:02:19.548Z,0.70
2023-04-29T00:04:47.396Z,0.77
2023-04-29T00:07:16.084Z,0.87
2023-04-29T00:09:43.857Z,0.90
2023-04-29T00:12:12.059Z,0.90
2023-04-29T00:14:39.691Z,0.87
2023-04-29T00:17:09.088Z,0.73
2023-04-29T00:19:36.964Z,1.10
2023-04-29T00:22:04.603Z,1.00
2023-04-29T00:24:32.188Z,0.90
2023-04-29T00:26:59.837Z,0.90
2023-04-29T00:29:27.790Z,0.90
2023-04-29T00:31:55.674Z,1.00
2023-04-29T00:34:24.615Z,0.90
2023-04-29T00:36:52.266Z,0.60
2023-04-29T00:39:19.835Z,0.70
2023-04-29T00:41:47.519Z,0.90
2023-04-29T00:44:15.349Z,0.80
2023-04-29T00:46:43.297Z,0.80
2023-04-29T00:49:12.358Z,0.60
2023-04-29T00:51:42.623Z,0.80
2023-04-29T00:54:11.972Z,0.60
2023-04-29T00:56:41.499Z,0.80
2023-04-29T00:59:11.299Z,0.70
2023-04-29T01:01:39.830Z,0.70
2023-04-29T01:04:08.258Z,0.67
2023-04-29T01:06:49.782Z,0.73
2023-04-29T01:09:33.803Z,0.80
2023-04-29T01:12:12.498Z,0.73
2023-04-29T01:14:40.726Z,0.60
2023-04-29T01:17:16.677Z,0.60
2023-04-29T01:19:49.090Z,0.63
2023-04-29T01:22:20.020Z,0.60
2023-04-29T01:24:49.318Z,0.80
2023-04-29T01:27:29.394Z,0.73
2023-04-29T01:30:03.987Z,0.80
2023-04-29T01:32:42.754Z,0.70
2023-04-29T01:35:20.479Z,0.70
2023-04-29T01:37:55.392Z,0.67
2023-04-29T01:40:27.952Z,0.70
2023-04-29T01:43:03.000Z,0.70
2023-04-29T01:45:33.627Z,0.80
2023-04-29T01:48:03.001Z,0.50
2023-04-29T01:50:30.753Z,1.30
2023-04-29T01:52:58.494Z,0.60
2023-04-29T01:55:27.824Z,0.70
2023-04-29T01:57:55.606Z,0.70
2023-04-29T02:00:23.604Z,0.67
2023-04-29T02:02:51.412Z,0.67
2023-04-29T02:05:19.065Z,0.67
2023-04-29T02:07:47.628Z,0.50
2023-04-29T02:10:15.355Z,0.70
2023-04-29T02:12:44.272Z,0.70
2023-04-29T02:15:12.219Z,0.90
2023-04-29T02:17:39.834Z,0.50
2023-04-29T02:20:10.186Z,0.60
2023-04-29T02:22:37.816Z,0.60
2023-04-29T02:25:06.491Z,0.67
2023-04-29T02:27:34.132Z,0.60
2023-04-29T02:30:04.792Z,0.60
2023-04-29T02:32:33.200Z,0.70
2023-04-29T02:35:00.856Z,0.50
2023-04-29T02:37:28.972Z,0.50
2023-04-29T02:39:56.571Z,0.70
2023-04-29T02:42:24.191Z,0.50
2023-04-29T02:44:51.816Z,0.60
2023-04-29T02:47:20.773Z,0.80
2023-04-29T02:49:48.362Z,0.70
2023-04-29T02:52:16.929Z,0.60
2023-04-29T02:54:44.825Z,0.53
2023-04-29T02:57:12.530Z,0.60
2023-04-29T02:59:40.091Z,0.60
2023-04-29T03:02:07.724Z,0.80
2023-04-29T03:04:36.651Z,0.60
2023-04-29T03:07:04.858Z,0.57
2023-04-29T03:09:32.476Z,0.70
2023-04-29T03:12:00.122Z,0.50
2023-04-29T03:14:28.035Z,0.60
2023-04-29T03:16:56.505Z,0.80
2023-04-29T03:19:24.193Z,0.60
2023-04-29T03:21:54.004Z,0.70
2023-04-29T03:24:22.120Z,0.60
2023-04-29T03:26:49.756Z,0.70
2023-04-29T03:29:17.341Z,0.80
2023-04-29T03:31:45.192Z,0.60
2023-04-29T03:34:14.489Z,0.57
2023-04-29T03:36:42.091Z,0.70
2023-04-29T03:39:11.904Z,0.50
2023-04-29T03:44:07.388Z,0.53
2023-04-29T03:46:35.124Z,0.70
2023-04-29T03:49:03.479Z,0.70
2023-04-29T03:51:31.286Z,0.43
2023-04-29T03:53:59.209Z,0.50
2023-04-29T03:56:28.145Z,0.60
2023-04-29T03:58:55.750Z,0.60
2023-04-29T04:01:23.669Z,0.50
2023-04-29T04:03:51.476Z,0.70
2023-04-29T04:06:19.241Z,0.50
2023-04-29T04:08:46.908Z,0.60
2023-04-29T04:11:15.182Z,0.50
2023-04-29T04:13:44.456Z,0.70
2023-04-29T04:16:12.446Z,0.60
2023-04-29T04:18:40.530Z,0.60
2023-04-29T04:21:08.660Z,0.50
2023-04-29T04:23:36.316Z,0.57
2023-04-29T04:26:03.939Z,0.60
2023-04-29T04:28:31.586Z,0.60
2023-04-29T04:31:00.526Z,0.50
2023-04-29T04:33:28.316Z,0.50
2023-04-29T04:35:56.128Z,0.47
2023-04-29T04:38:25.501Z,0.53
2023-04-29T04:40:53.153Z,0.40
2023-04-29T04:43:21.162Z,0.70
2023-04-29T04:45:48.853Z,0.50
2023-04-29T04:48:17.876Z,0.73
2023-04-29T04:50:45.453Z,0.50
2023-04-29T04:53:13.104Z,0.60
2023-04-29T04:55:40.672Z,0.70
2023-04-29T04:58:08.286Z,0.50
2023-04-29T05:00:35.900Z,0.50
2023-04-29T05:03:03.582Z,0.70
2023-04-29T05:05:34.447Z,0.57
2023-04-29T05:08:02.156Z,0.50
2023-04-29T05:10:29.733Z,0.50
2023-04-29T05:12:57.569Z,0.60
2023-04-29T05:15:27.275Z,0.60
2023-04-29T05:17:54.879Z,0.70
2023-04-29T05:20:22.491Z,0.70
2023-04-29T05:22:51.431Z,0.57
2023-04-29T05:25:19.033Z,0.50
2023-04-29T05:27:46.689Z,0.40
2023-04-29T05:30:14.384Z,0.50
2023-04-29T05:32:42.109Z,0.60
2023-04-29T05:35:10.371Z,0.60
2023-04-29T05:37:38.010Z,0.40
2023-04-29T05:40:10.297Z,0.43
2023-04-29T05:42:37.970Z,0.50
2023-04-29T05:45:06.343Z,0.63
2023-04-29T05:47:34.028Z,0.50
2023-04-29T05:50:01.664Z,0.60
2023-04-29T05:52:29.400Z,0.57
2023-04-29T05:54:57.829Z,0.50
2023-04-29T05:57:27.047Z,0.50
2023-04-29T05:59:55.242Z,0.50
2023-04-29T06:02:23.384Z,0.40
2023-04-29T06:04:51.567Z,0.60
2023-04-29T06:07:20.352Z,0.50
2023-04-29T06:09:51.253Z,0.53
2023-04-29T06:12:19.159Z,0.40
2023-04-29T06:14:48.271Z,0.50
2023-04-29T06:17:16.278Z,0.50
2023-04-29T06:19:46.899Z,0.60
2023-04-29T06:22:14.747Z,0.40
2023-04-29T06:24:42.461Z,0.30
2023-04-29T06:27:10.327Z,0.50
2023-04-29T06:29:38.078Z,0.70
2023-04-29T06:32:07.200Z,0.40
2023-04-29T06:34:34.981Z,0.53
2023-04-29T06:37:02.597Z,0.60
2023-04-29T06:39:30.212Z,0.50
2023-04-29T06:41:58.828Z,0.50
2023-04-29T06:44:26.528Z,0.60
2023-04-29T06:46:54.197Z,0.50
2023-04-29T06:49:23.213Z,0.70
2023-04-29T06:51:50.833Z,0.40
2023-04-29T06:54:18.439Z,0.40
2023-04-29T06:56:47.182Z,0.60
2023-04-29T06:59:15.318Z,0.60
2023-04-29T07:01:44.637Z,0.50
2023-04-29T07:04:13.633Z,0.53
2023-04-29T07:06:46.687Z,0.60
2023-04-29T07:09:14.937Z,0.40
2023-04-29T07:11:42.728Z,0.30
2023-04-29T07:14:10.377Z,0.40
2023-04-29T07:16:38.269Z,0.43
2023-04-29T07:19:05.989Z,0.60
2023-04-29T07:21:33.583Z,0.40
2023-04-29T07:24:04.896Z,0.60
2023-04-29T07:26:32.673Z,0.53
2023-04-29T07:29:00.304Z,0.60
2023-04-29T07:31:28.268Z,0.67
2023-04-29T07:33:57.061Z,0.50
2023-04-29T07:36:24.674Z,0.60
2023-04-29T07:38:52.394Z,0.50
2023-04-29T07:41:21.547Z,0.70
2023-04-29T07:43:49.134Z,0.80
2023-04-29T07:46:18.312Z,0.50
2023-04-29T07:48:46.199Z,0.80
2023-04-29T07:51:14.872Z,0.60
2023-04-29T07:53:43.135Z,0.70
2023-04-29T07:56:10.999Z,0.70
2023-04-29T07:58:39.950Z,0.70
2023-04-29T08:01:08.623Z,0.63
2023-04-29T08:03:38.935Z,0.73
2023-04-29T08:06:08.638Z,0.63
2023-04-29T08:08:36.548Z,0.80
2023-04-29T08:11:04.596Z,0.67
2023-04-29T08:13:32.244Z,0.63
2023-04-29T08:16:01.267Z,0.50
2023-04-29T08:18:28.971Z,0.83
2023-04-29T08:20:56.555Z,0.80
2023-04-29T08:23:24.181Z,0.80
2023-04-29T08:25:53.518Z,0.80
2023-04-29T08:28:21.091Z,0.70
2023-04-29T08:30:49.132Z,0.80
2023-04-29T08:33:18.151Z,1.00
2023-04-29T08:35:45.792Z,0.70
2023-04-29T08:38:13.437Z,0.70
2023-04-29T08:40:43.827Z,0.63
2023-04-29T08:43:11.629Z,0.80
2023-04-29T08:45:40.737Z,0.90
2023-04-29T08:48:09.143Z,0.80
2023-04-29T08:50:40.604Z,0.90
2023-04-29T08:53:08.852Z,0.93
2023-04-29T08:55:37.842Z,0.60
2023-04-29T08:58:06.132Z,0.97
2023-04-29T09:00:35.291Z,0.83
2023-04-29T09:03:13.201Z,0.90
2023-04-29T09:05:44.521Z,0.90
2023-04-29T09:08:13.480Z,0.80
2023-04-29T09:10:43.551Z,1.17
2023-04-29T09:13:24.317Z,1.17
2023-04-29T09:15:52.132Z,0.90
2023-04-29T09:18:44.113Z,1.10
2023-04-29T09:21:21.105Z,0.90
2023-04-29T09:23:51.464Z,0.97
2023-04-29T09:26:19.375Z,0.90
2023-04-29T09:28:47.832Z,0.87
2023-04-29T09:31:15.774Z,0.80
2023-04-29T09:33:51.539Z,0.90
2023-04-29T09:36:44.844Z,1.07
2023-04-29T09:39:15.037Z,1.00
2023-04-29T09:41:59.228Z,0.80
2023-04-29T09:44:30.013Z,1.00
2023-04-29T09:47:02.538Z,1.17
2023-04-29T09:49:32.783Z,0.93
2023-04-29T09:52:03.960Z,1.07
2023-04-29T09:54:32.852Z,1.10
2023-04-29T09:57:02.266Z,1.20
2023-04-29T09:59:29.970Z,1.00
2023-04-29T10:01:58.965Z,1.03
2023-04-29T10:04:28.085Z,0.90
2023-04-29T10:06:57.310Z,1.13
2023-04-29T10:09:26.253Z,1.20
2023-04-29T10:11:54.831Z,0.87
2023-04-29T10:14:25.865Z,1.00
2023-04-29T10:17:00.617Z,1.17
2023-04-29T10:19:35.257Z,1.17
2023-04-29T10:22:08.488Z,1.10
2023-04-29T10:24:40.067Z,1.33
2023-04-29T10:27:09.289Z,1.17
2023-04-29T10:29:38.932Z,1.00
2023-04-29T10:32:09.834Z,1.27
2023-04-29T10:34:38.859Z,0.93
2023-04-29T10:37:07.326Z,1.17
2023-04-29T10:39:45.143Z,1.20
2023-04-29T10:42:22.300Z,0.90
2023-04-29T10:45:20.870Z,1.43
2023-04-29T10:48:14.046Z,1.10
2023-04-29T10:51:02.533Z,1.20
2023-04-29T10:53:30.764Z,1.20
2023-04-29T10:56:05.774Z,1.20
2023-04-29T10:58:36.561Z,1.10
2023-04-29T11:01:04.854Z,1.27
2023-04-29T11:03:50.699Z,1.00
2023-04-29T11:06:18.499Z,1.10
2023-04-29T11:08:46.246Z,0.93
2023-04-29T11:11:16.041Z,1.33
2023-04-29T11:13:47.126Z,1.20
2023-04-29T11:16:15.024Z,1.00
2023-04-29T11:19:07.481Z,1.00
2023-04-29T11:21:36.606Z,0.90
2023-04-29T11:24:06.338Z,1.47
2023-04-29T11:26:35.880Z,1.33
2023-04-29T11:29:03.908Z,1.10
2023-04-29T11:31:32.317Z,1.10
2023-04-29T11:34:00.313Z,1.37
2023-04-29T11:36:28.426Z,1.10
2023-04-29T11:38:56.322Z,1.50
2023-04-29T11:41:24.345Z,1.10
2023-04-29T11:43:58.130Z,1.20
2023-04-29T11:46:26.145Z,1.10
2023-04-29T11:48:53.791Z,1.40
2023-04-29T11:51:22.489Z,1.20
2023-04-29T11:53:50.197Z,1.17
2023-04-29T11:56:17.862Z,0.97
2023-04-29T11:58:45.575Z,1.10
2023-04-29T12:01:14.693Z,1.20
2023-04-29T12:03:45.240Z,1.30
2023-04-29T12:06:15.017Z,1.40
2023-04-29T12:08:42.653Z,1.40
2023-04-29T12:11:10.245Z,1.57
2023-04-29T12:13:38.299Z,1.23
2023-04-29T12:16:06.907Z,1.00
2023-04-29T12:18:36.166Z,1.20
2023-04-29T12:21:03.841Z,1.37
2023-04-29T12:23:31.715Z,1.27
2023-04-29T12:26:02.652Z,1.27
2023-04-29T12:28:30.660Z,1.20
2023-04-29T12:31:00.063Z,1.40
2023-04-29T12:33:29.411Z,1.27
2023-04-29T12:35:59.735Z,1.20
2023-04-29T12:38:28.965Z,1.10
2023-04-29T12:40:57.526Z,1.30
2023-04-29T12:43:28.419Z,1.63
2023-04-29T12:46:01.509Z,1.27
2023-04-29T12:48:33.462Z,1.20
2023-04-29T12:51:03.242Z,1.50
2023-04-29T12:53:31.860Z,1.10
2023-04-29T12:55:59.792Z,1.10
2023-04-29T12:58:30.014Z,1.30
2023-04-29T13:00:57.966Z,1.40
2023-04-29T13:03:25.984Z,1.20
2023-04-29T13:05:54.789Z,1.40
2023-04-29T13:08:23.920Z,1.10
2023-04-29T13:10:51.587Z,1.50
2023-04-29T13:13:19.457Z,1.10
2023-04-29T13:15:47.455Z,1.50
2023-04-29T13:18:15.224Z,1.40
2023-04-29T13:20:42.849Z,1.53
2023-04-29T13:23:10.650Z,1.70
2023-04-29T13:25:39.592Z,1.17
2023-04-29T13:28:07.591Z,1.27
2023-04-29T13:30:35.316Z,1.30
2023-04-29T13:33:09.954Z,1.37
2023-04-29T13:35:41.526Z,1.40
2023-04-29T13:38:09.676Z,1.30
2023-04-29T13:40:42.907Z,1.30
2023-04-29T13:43:20.937Z,1.50
2023-04-29T13:45:53.207Z,1.63
2023-04-29T13:53:56.830Z,1.60
2023-04-29T14:01:54.226Z,1.20
2023-04-29T14:04:02.632Z,1.63
2023-04-29T14:06:30.483Z,1.30
2023-04-29T14:08:58.316Z,1.50
2023-04-29T14:11:27.259Z,1.50
2023-04-29T14:13:54.874Z,1.57
2023-04-29T14:16:22.558Z,1.70
2023-04-29T14:18:50.211Z,1.37
2023-04-29T14:21:18.037Z,1.70
2023-04-29T14:23:45.731Z,1.60
2023-04-29T14:28:45.191Z,1.43
2023-04-29T14:31:13.840Z,1.70
2023-04-29T14:33:41.605Z,1.70
2023-04-29T14:36:10.308Z,1.70
2023-04-29T14:38:37.893Z,1.80
2023-04-29T14:41:05.670Z,1.50
2023-04-29T14:43:33.298Z,1.50
2023-04-29T14:46:02.333Z,1.63
2023-04-29T14:48:30.059Z,1.60
2023-04-29T14:50:57.836Z,1.60
2023-04-29T14:53:25.458Z,1.70
2023-04-29T14:55:53.569Z,1.53
2023-04-29T14:58:21.228Z,1.43
2023-04-29T15:00:49.314Z,1.40
2023-04-29T15:03:22.372Z,1.70
2023-04-29T15:05:50.995Z,1.57
2023-04-29T15:08:19.075Z,1.20
2023-04-29T15:10:47.503Z,1.60
2023-04-29T15:13:15.389Z,1.40
2023-04-29T15:15:43.037Z,1.70
2023-04-29T15:18:10.675Z,1.33
2023-04-29T15:20:39.874Z,1.83
2023-04-29T15:23:08.452Z,1.60
2023-04-29T15:25:36.600Z,1.50
2023-04-29T15:28:04.656Z,1.53
2023-04-29T15:30:32.878Z,1.57
2023-04-29T15:33:00.822Z,1.30
2023-04-29T15:35:28.616Z,1.43
2023-04-29T15:37:59.169Z,1.43
2023-04-29T15:40:26.852Z,1.43
2023-04-29T15:42:54.458Z,1.43
2023-04-29T15:45:22.049Z,1.53
2023-04-29T15:47:49.659Z,1.40
2023-04-29T15:50:17.347Z,1.50
2023-04-29T15:52:44.974Z,1.40
2023-04-29T15:55:13.915Z,1.30
2023-04-29T15:57:42.736Z,1.70
2023-04-29T16:00:11.500Z,1.60
2023-04-29T16:02:39.273Z,1.60
2023-04-29T16:05:07.361Z,1.40
2023-04-29T16:07:35.596Z,1.60
2023-04-29T16:10:04.749Z,1.20
2023-04-29T16:12:33.939Z,1.40
2023-04-29T16:15:01.548Z,1.50
2023-04-29T16:17:29.616Z,1.40
2023-04-29T16:19:57.254Z,1.50
2023-04-29T16:22:24.849Z,1.40
2023-04-29T16:24:52.559Z,1.23
2023-04-29T16:27:20.188Z,1.40
2023-04-29T16:29:49.310Z,1.40
2023-04-29T16:32:17.227Z,1.47
2023-04-29T16:34:44.856Z,1.40
2023-04-29T16:37:12.693Z,1.47
2023-04-29T16:39:40.733Z,1.33
2023-04-29T16:42:08.630Z,1.50
2023-04-29T16:44:36.217Z,1.80
2023-04-29T16:47:05.185Z,1.70
2023-04-29T16:49:32.844Z,1.33
2023-04-29T16:52:00.440Z,1.20
2023-04-29T16:54:28.084Z,1.50
2023-04-29T16:56:55.675Z,1.50
2023-04-29T16:59:23.275Z,1.53
2023-04-29T17:01:51.177Z,1.60
2023-04-29T17:04:20.211Z,1.27
2023-04-29T17:06:48.518Z,1.33
2023-04-29T17:09:16.708Z,1.50
2023-04-29T17:11:44.268Z,1.60
2023-04-29T17:14:11.898Z,1.50
2023-04-29T17:16:39.551Z,1.43
2023-04-29T17:19:07.207Z,1.40
2023-04-29T17:21:36.240Z,1.73
2023-04-29T17:24:04.448Z,1.30
2023-04-29T17:26:32.028Z,1.50
2023-04-29T17:28:59.920Z,1.30
2023-04-29T17:31:35.457Z,1.40
2023-04-29T17:34:18.082Z,1.40
2023-04-29T17:36:48.029Z,1.30
2023-04-29T17:39:16.274Z,1.20
2023-04-29T17:41:43.995Z,1.20
2023-04-29T17:44:11.677Z,1.50
2023-04-29T17:46:39.975Z,1.57
2023-04-29T17:49:07.595Z,1.27
2023-04-29T17:51:35.206Z,1.60
2023-04-29T17:54:05.760Z,1.33
2023-04-29T17:56:34.868Z,1.70
2023-04-29T17:59:03.087Z,1.80
2023-04-29T18:01:30.745Z,1.70
2023-04-29T18:03:58.579Z,1.30
2023-04-29T18:06:28.130Z,1.10
2023-04-29T18:08:55.825Z,1.40
2023-04-29T18:11:25.137Z,1.63
2023-04-29T18:13:53.986Z,1.60
2023-04-29T18:16:21.700Z,1.23
2023-04-29T18:18:51.329Z,1.37
2023-04-29T18:21:21.615Z,1.60
2023-04-29T18:23:49.237Z,1.30
2023-04-29T18:26:18.254Z,1.60
2023-04-29T18:28:48.112Z,1.70
2023-04-29T18:31:17.026Z,1.40
2023-04-29T18:33:45.322Z,1.23
2023-04-29T18:36:14.147Z,1.80
2023-04-29T18:38:42.167Z,1.50
2023-04-29T18:41:09.977Z,1.40
2023-04-29T18:43:37.624Z,1.67
2023-04-29T18:46:06.718Z,1.50
2023-04-29T18:48:35.764Z,1.40
2023-04-29T18:51:04.364Z,1.60
2023-04-29T18:53:32.501Z,1.73
2023-04-29T18:56:00.202Z,1.73
2023-04-29T18:58:27.869Z,1.40
2023-04-29T19:00:57.636Z,1.90
2023-04-29T19:03:27.169Z,1.60
2023-04-29T19:05:54.783Z,2.47
2023-04-29T19:08:22.406Z,2.17
2023-04-29T19:10:50.629Z,2.50
2023-04-29T19:13:18.224Z,2.10
2023-04-29T19:15:50.448Z,2.30
2023-04-29T19:18:19.976Z,1.63
2023-04-29T19:20:49.295Z,1.73
2023-04-29T19:23:17.050Z,2.13
2023-04-29T19:25:44.722Z,2.20
2023-04-29T19:28:12.324Z,1.63
2023-04-29T19:30:39.996Z,1.97
2023-04-29T19:33:08.421Z,1.60
2023-04-29T19:35:36.729Z,2.00
2023-04-29T19:38:05.669Z,1.80
2023-04-29T19:40:33.322Z,2.07
2023-04-29T19:43:00.981Z,1.70
2023-04-29T19:45:28.706Z,2.23
2023-04-29T19:47:56.453Z,1.23
2023-04-29T19:50:24.328Z,1.60
2023-04-29T19:52:51.990Z,1.50
2023-04-29T19:55:21.065Z,1.67
2023-04-29T19:57:49.392Z,1.60
2023-04-29T20:00:17.382Z,1.60
2023-04-29T20:02:45.602Z,2.03
2023-04-29T20:05:13.644Z,2.10
2023-04-29T20:07:41.386Z,1.53
2023-04-29T20:10:10.077Z,1.73
2023-04-29T20:12:40.397Z,2.00
2023-04-29T20:15:09.579Z,1.70
2023-04-29T20:17:37.491Z,1.80
2023-04-29T20:20:08.894Z,1.70
2023-04-29T20:22:36.593Z,1.10
2023-04-29T20:25:04.251Z,1.10
2023-04-29T20:27:31.886Z,1.13
2023-04-29T20:30:00.937Z,1.40
2023-04-29T20:32:28.659Z,1.20
2023-04-29T20:34:56.273Z,1.23
2023-04-29T20:37:23.912Z,1.20
2023-04-29T20:39:51.704Z,1.43
2023-04-29T20:42:20.243Z,1.80
2023-04-29T20:44:47.951Z,1.70
2023-04-29T20:47:16.919Z,2.23
2023-04-29T20:49:44.501Z,1.40
2023-04-29T20:52:12.697Z,1.80
2023-04-29T20:54:40.294Z,1.90
2023-04-29T20:57:07.907Z,1.50
2023-04-29T20:59:35.550Z,1.50
2023-04-29T21:02:03.271Z,1.57
2023-04-29T21:04:32.338Z,1.60
2023-04-29T21:06:59.965Z,2.00
2023-04-29T21:09:27.593Z,1.43
2023-04-29T21:11:55.244Z,1.70
2023-04-29T21:14:22.874Z,1.80
2023-04-29T21:16:50.501Z,1.70
2023-04-29T21:19:18.117Z,1.50
2023-04-29T21:21:47.073Z,1.50
2023-04-29T21:24:14.682Z,2.00
2023-04-29T21:26:42.547Z,2.00
2023-04-29T21:29:10.548Z,1.60
2023-04-29T21:31:38.159Z,2.00
2023-04-29T21:34:06.072Z,1.60
2023-04-29T21:36:33.871Z,1.70
2023-04-29T21:39:02.851Z,2.07
2023-04-29T21:41:37.332Z,1.90
2023-04-29T21:44:06.966Z,1.80
2023-04-29T21:46:35.560Z,1.90
2023-04-29T21:49:03.923Z,2.00
2023-04-29T21:51:32.655Z,1.80
2023-04-29T21:54:05.875Z,1.93
2023-04-29T21:56:33.529Z,1.83
2023-04-29T21:59:01.250Z,1.90
2023-04-29T22:01:40.507Z,1.30
2023-04-29T22:04:08.491Z,1.17
2023-04-29T22:06:36.194Z,0.97
2023-04-29T22:09:06.537Z,1.20
2023-04-29T22:11:34.161Z,1.10
2023-04-29T22:14:01.867Z,1.07
2023-04-29T22:16:29.708Z,1.20
2023-04-29T22:18:58.225Z,0.97
2023-04-29T22:21:27.792Z,1.10
2023-04-29T22:23:55.735Z,1.17
2023-04-29T22:26:25.382Z,1.30
2023-04-29T22:28:53.044Z,1.10
2023-04-29T22:31:20.723Z,1.23
2023-04-29T22:33:48.414Z,1.23
2023-04-29T22:36:16.112Z,1.40
2023-04-29T22:38:43.715Z,1.33
2023-04-29T22:41:11.767Z,1.20
2023-04-29T22:43:40.763Z,1.17
2023-04-29T22:46:08.579Z,1.23
2023-04-29T22:48:36.283Z,1.10
2023-04-29T22:51:03.912Z,1.00
2023-04-29T22:53:31.614Z,1.20
2023-04-29T22:56:01.853Z,1.27
2023-04-29T22:58:29.499Z,1.30
2023-04-29T23:00:59.151Z,1.00
2023-04-29T23:03:27.976Z,1.20
2023-04-29T23:05:59.378Z,1.43
2023-04-29T23:08:27.318Z,1.17
2023-04-29T23:10:55.013Z,1.17
2023-04-29T23:13:22.681Z,1.33
2023-04-29T23:15:50.656Z,1.17
2023-04-29T23:18:20.005Z,1.30
2023-04-29T23:20:47.947Z,1.27
2023-04-29T23:23:15.694Z,1.10
2023-04-29T23:25:43.384Z,1.20
2023-04-29T23:28:11.018Z,1.03
2023-04-29T23:30:38.655Z,1.00
2023-04-29T23:33:06.252Z,1.30
2023-04-29T23:35:35.333Z,1.10
2023-04-29T23:38:02.929Z,1.30
2023-04-29T23:40:31.758Z,1.10
2023-04-29T23:42:59.530Z,0.90
2023-04-29T23:45:27.492Z,1.30
2023-04-29T23:47:55.233Z,1.17
2023-04-29T23:50:22.864Z,0.97
2023-04-29T23:52:51.999Z,1.13
2023-04-29T23:55:20.521Z,1.20
2023-04-29T23:57:48.434Z,1.00
